Time;durP1;ratioP1;P1;durP2;ratioP2;P2;SDS_P1;SDS_P2;PMS_P1;PMS_P2;Temp;Humidity;BMP_temperature;BMP_pressure;BME280_temperature;BME280_humidity;BME280_pressure;Samples;Min_cycle;Max_cycle;Signal;HPM_P1;HPM_P2
2023/01/02 00:01:29;;;;;;;;;;;16.60;74.10;;;;;;10168834;28;92844;-61
2023/01/02 00:06:34;;;;;;;;;;;16.60;74.00;;;;;;10169253;28;93443;-60
2023/01/02 00:11:35;;;;;;;;;;;16.60;74.10;;;;;;10169702;28;93459;-61
2023/01/02 00:16:37;;;;;;;;;;;16.60;74.00;;;;;;10166973;28;95397;-60
2023/01/02 00:21:39;;;;;;;;;;;16.60;74.00;;;;;;10168273;28;93521;-60
2023/01/02 00:26:41;;;;;;;;;;;16.60;75.00;;;;;;10168854;28;93767;-61
2023/01/02 00:31:42;;;;;;;;;;;16.60;73.90;;;;;;10168588;28;93256;-60
2023/01/02 00:36:44;;;;;;;;;;;16.60;73.80;;;;;;10168682;28;94841;-60
2023/01/02 00:41:46;;;;;;;;;;;16.60;73.90;;;;;;10168104;28;93476;-60
2023/01/02 00:46:48;;;;;;;;;;;16.50;73.80;;;;;;10167386;28;94141;-60
2023/01/02 00:51:49;;;;;;;;;;;16.50;73.90;;;;;;10168648;28;92696;-60
2023/01/02 00:56:51;;;;;;;;;;;16.50;73.80;;;;;;10182433;28;94503;-60
2023/01/02 01:01:53;;;;;;;;;;;16.50;73.90;;;;;;10167057;28;94254;-60
2023/01/02 01:06:54;;;;;;;;;;;16.50;73.90;;;;;;10163963;28;96327;-61
2023/01/02 01:11:56;;;;;;;;;;;16.50;74.00;;;;;;10166271;28;93283;-61
2023/01/02 01:17:01;;;;;;;;;;;16.50;73.90;;;;;;10167951;28;92674;-61
2023/01/02 01:22:03;;;;;;;;;;;16.50;73.90;;;;;;10182516;28;94323;-60
2023/01/02 01:27:05;;;;;;;;;;;16.50;74.00;;;;;;10180422;28;94037;-60
2023/01/02 01:32:06;;;;;;;;;;;16.50;73.90;;;;;;10166866;28;93792;-61
2023/01/02 01:37:08;;;;;;;;;;;16.50;74.00;;;;;;10180815;28;93355;-61
2023/01/02 01:42:13;;;;;;;;;;;16.50;74.00;;;;;;10181302;28;92928;-67
2023/01/02 01:47:27;;;;;;;;;;;16.50;74.00;;;;;;10166615;28;93753;-61
2023/01/02 01:52:29;;;;;;;;;;;16.50;74.00;;;;;;10166257;28;94522;-61
2023/01/02 01:57:34;;;;;;;;;;;16.50;74.00;;;;;;10164023;28;96831;-60
2023/01/02 02:02:38;;;;;;;;;;;16.40;73.90;;;;;;10583136;22;94895;-60
2023/01/02 02:07:44;;;;;;;;;;;16.40;73.90;;;;;;10164871;28;94937;-60
2023/01/02 02:12:45;;;;;;;;;;;16.40;73.90;;;;;;10165263;28;93525;-61
2023/01/02 02:18:07;;;;;;;;;;;16.40;73.90;;;;;;10165522;28;94304;-61
2023/01/02 02:23:31;;;;;;;;;;;16.40;74.00;;;;;;10148104;28;93551;-61
2023/01/02 02:28:48;;;;;;;;;;;16.40;74.00;;;;;;10172968;28;94197;-60
2023/01/02 02:34:01;;;;;;;;;;;16.40;73.90;;;;;;10171088;28;92461;-60
2023/01/02 02:39:12;;;;;;;;;;;16.40;74.00;;;;;;10172516;28;93178;-60
2023/01/02 02:44:14;;;;;;;;;;;16.40;73.90;;;;;;10171862;28;94000;-60
2023/01/02 02:49:27;;;;;;;;;;;16.40;74.00;;;;;;10169680;28;96930;-60
2023/01/02 02:54:39;;;;;;;;;;;16.40;74.00;;;;;;10170904;28;93434;-61
2023/01/02 02:59:41;;;;;;;;;;;16.40;74.00;;;;;;10171118;28;94888;-61
2023/01/02 03:04:44;;;;;;;;;;;16.40;73.90;;;;;;10168951;28;93726;-61
2023/01/02 03:09:56;;;;;;;;;;;16.40;73.90;;;;;;10170986;28;93308;-61
2023/01/02 03:15:03;;;;;;;;;;;16.40;73.90;;;;;;10170683;28;94483;-61
2023/01/02 03:20:11;;;;;;;;;;;16.40;74.00;;;;;;10170069;28;93673;-62
2023/01/02 03:25:14;;;;;;;;;;;16.40;74.00;;;;;;10154311;28;93870;-61
2023/01/02 03:30:17;;;;;;;;;;;16.40;74.00;;;;;;10170962;28;93584;-61
2023/01/02 03:35:22;;;;;;;;;;;16.30;73.80;;;;;;10169718;28;94428;-62
2023/01/02 03:40:29;;;;;;;;;;;16.30;74.00;;;;;;10167802;28;95832;-61
2023/01/02 03:45:33;;;;;;;;;;;16.30;74.00;;;;;;10170024;28;93727;-61
2023/01/02 03:50:39;;;;;;;;;;;16.30;74.00;;;;;;10169886;28;93574;-61
2023/01/02 03:55:49;;;;;;;;;;;16.30;74.00;;;;;;10169693;28;93480;-61
2023/01/02 04:00:55;;;;;;;;;;;16.40;74.10;;;;;;10168949;28;93110;-61
2023/01/02 04:06:04;;;;;;;;;;;16.30;74.00;;;;;;10168923;28;94647;-62
2023/01/02 04:11:06;;;;;;;;;;;16.30;74.00;;;;;;10169392;28;93475;-61
2023/01/02 04:16:11;;;;;;;;;;;16.30;74.00;;;;;;10169752;28;92562;-61
2023/01/02 04:21:15;;;;;;;;;;;16.30;74.10;;;;;;10167842;28;94608;-61
2023/01/02 04:26:23;;;;;;;;;;;16.30;74.10;;;;;;10166746;28;93252;-61
2023/01/02 04:31:31;;;;;;;;;;;16.30;74.10;;;;;;10166556;28;95879;-61
2023/01/02 04:36:36;;;;;;;;;;;16.30;74.00;;;;;;10168640;28;94515;-61
2023/01/02 04:41:38;;;;;;;;;;;16.30;74.10;;;;;;10167635;28;93505;-61
2023/01/02 06:04:35;;;;;;;;;;;16.40;74.10;;;;;;10140680;28;93268;-61
2023/01/02 06:09:37;;;;;;;;;;;16.50;73.90;;;;;;10172777;28;93541;-61
2023/01/02 06:14:38;;;;;;;;;;;16.50;73.80;;;;;;10172677;28;93961;-60
2023/01/02 06:19:40;;;;;;;;;;;16.60;73.70;;;;;;10172027;28;94451;-61
2023/01/02 06:24:42;;;;;;;;;;;16.60;73.70;;;;;;10170801;28;93319;-60
2023/01/02 06:29:43;;;;;;;;;;;16.60;73.50;;;;;;10169493;28;95821;-62
2023/01/02 06:34:45;;;;;;;;;;;16.50;73.50;;;;;;10171446;28;94418;-62
2023/01/02 06:39:47;;;;;;;;;;;16.50;73.40;;;;;;10171278;28;93959;-61
2023/01/02 06:44:48;;;;;;;;;;;16.50;73.40;;;;;;10170738;28;93499;-61
2023/01/02 06:49:50;;;;;;;;;;;16.50;73.40;;;;;;10171737;28;93249;-61
2023/01/02 06:54:52;;;;;;;;;;;16.50;73.40;;;;;;10169133;28;94302;-61
2023/01/02 06:59:53;;;;;;;;;;;16.50;73.40;;;;;;10171225;28;94418;-61
2023/01/02 07:04:55;;;;;;;;;;;16.50;73.40;;;;;;10170478;28;92905;-61
2023/01/02 07:09:57;;;;;;;;;;;16.50;73.40;;;;;;10169433;28;93565;-62
2023/01/02 07:14:58;;;;;;;;;;;16.40;73.30;;;;;;10170469;28;94021;-61
2023/01/02 07:20:00;;;;;;;;;;;16.40;73.30;;;;;;10167763;28;96854;-62
2023/01/02 07:25:03;;;;;;;;;;;16.40;73.40;;;;;;10170178;28;94134;-61
2023/01/02 07:30:05;;;;;;;;;;;16.40;73.40;;;;;;10167893;28;93611;-61
2023/01/02 07:35:07;;;;;;;;;;;16.30;73.40;;;;;;10169657;28;93210;-61
2023/01/02 07:40:09;;;;;;;;;;;16.30;73.40;;;;;;10168642;28;93586;-61
2023/01/02 07:45:10;;;;;;;;;;;16.30;73.40;;;;;;10168650;28;94535;-62
2023/01/02 07:50:12;;;;;;;;;;;16.30;73.20;;;;;;10169899;28;93678;-62
2023/01/02 07:55:13;;;;;;;;;;;16.30;73.20;;;;;;10170130;28;92402;-61
2023/01/02 08:00:16;;;;;;;;;;;16.30;73.20;;;;;;10169698;28;94663;-61
2023/01/02 08:05:18;;;;;;;;;;;16.30;73.20;;;;;;10169995;28;93630;-61
2023/01/02 08:10:19;;;;;;;;;;;16.30;73.20;;;;;;10167229;28;96990;-62
2023/01/02 08:15:21;;;;;;;;;;;16.20;73.20;;;;;;10168108;28;93682;-61
2023/01/02 08:20:23;;;;;;;;;;;16.30;73.20;;;;;;10168813;28;93625;-61
2023/01/02 08:25:25;;;;;;;;;;;16.20;73.20;;;;;;10169286;28;94459;-61
2023/01/02 08:30:27;;;;;;;;;;;16.30;73.20;;;;;;10168981;28;94606;-62
2023/01/02 08:35:30;;;;;;;;;;;16.30;73.20;;;;;;10168223;28;94485;-61
2023/01/02 08:40:39;;;;;;;;;;;16.30;73.20;;;;;;10169431;28;94390;-61
2023/01/02 08:45:41;;;;;;;;;;;16.20;73.10;;;;;;10169958;28;93427;-61
2023/01/02 08:50:43;;;;;;;;;;;16.20;73.20;;;;;;10166269;28;94585;-61
2023/01/02 08:55:45;;;;;;;;;;;16.20;73.10;;;;;;10167926;28;93267;-61
2023/01/02 09:00:46;;;;;;;;;;;16.20;73.00;;;;;;10165295;28;96847;-61
2023/01/02 09:05:48;;;;;;;;;;;16.20;73.00;;;;;;10167373;28;94151;-60
2023/01/02 09:10:50;;;;;;;;;;;16.20;72.90;;;;;;10181086;28;93823;-60
2023/01/02 09:15:52;;;;;;;;;;;16.20;73.00;;;;;;10165592;28;93190;-60
2023/01/02 09:20:53;;;;;;;;;;;16.20;73.00;;;;;;10166721;28;92925;-61
2023/01/02 09:25:59;;;;;;;;;;;16.20;72.90;;;;;;10166726;28;93706;-60
2023/01/02 09:31:07;;;;;;;;;;;16.20;72.90;;;;;;10165536;28;94602;-60
2023/01/02 09:36:14;;;;;;;;;;;16.20;72.90;;;;;;10167630;28;93668;-61
2023/01/02 09:41:35;;;;;;;;;;;16.20;72.90;;;;;;10166935;28;94545;-60
2023/01/02 09:46:56;;;;;;;;;;;16.20;73.00;;;;;;10165323;28;93536;-60
2023/01/02 09:51:58;;;;;;;;;;;16.20;73.10;;;;;;10163434;28;95505;-61
2023/01/02 09:57:15;;;;;;;;;;;16.20;73.50;;;;;;10164911;28;93028;-61
2023/01/02 10:02:35;;;;;;;;;;;16.20;73.40;;;;;;10165717;28;93283;-61
2023/01/02 10:07:41;;;;;;;;;;;16.40;73.40;;;;;;10165751;28;94907;-60
2023/01/02 10:12:57;;;;;;;;;;;16.60;73.20;;;;;;10165818;28;112727;-61
2023/01/02 10:18:13;;;;;;;;;;;16.80;72.80;;;;;;10165759;28;93517;-61
2023/01/02 10:23:19;;;;;;;;;;;17.00;72.50;;;;;;10165766;28;94160;-61
2023/01/02 10:28:23;;;;;;;;;;;17.20;72.20;;;;;;10166814;28;93762;-60
2023/01/02 10:33:28;;;;;;;;;;;17.30;71.90;;;;;;10165619;28;94044;-60
2023/01/02 10:38:37;;;;;;;;;;;17.30;71.80;;;;;;10163717;28;93704;-60
2023/01/02 10:43:39;;;;;;;;;;;17.40;71.60;;;;;;10166033;28;95171;-61
2023/01/02 10:48:40;;;;;;;;;;;17.40;71.60;;;;;;10171789;28;93405;-60
2023/01/02 10:54:06;;;;;;;;;;;17.40;71.60;;;;;;10171316;28;93921;-60
2023/01/02 10:59:34;;;;;;;;;;;17.40;71.70;;;;;;10172547;28;93655;-60
2023/01/02 11:04:40;;;;;;;;;;;17.50;71.70;;;;;;10169687;28;93663;-60
2023/01/02 11:09:51;;;;;;;;;;;17.60;71.60;;;;;;10170681;28;94395;-60
2023/01/02 11:15:08;;;;;;;;;;;17.70;71.30;;;;;;10171325;28;94731;-64
2023/01/02 11:20:19;;;;;;;;;;;17.80;71.00;;;;;;10171644;28;92758;-62
2023/01/02 11:25:23;;;;;;;;;;;17.90;73.00;;;;;;10170835;28;93618;-63
2023/01/02 11:30:35;;;;;;;;;;;17.90;74.10;;;;;;10171540;28;95259;-61
2023/01/02 11:35:47;;;;;;;;;;;17.90;71.60;;;;;;10169377;28;95799;-61
2023/01/02 11:40:51;;;;;;;;;;;17.70;70.80;;;;;;10171007;28;93623;-61
2023/01/02 11:45:53;;;;;;;;;;;17.60;70.20;;;;;;10171204;28;94821;-60
2023/01/02 11:50:54;;;;;;;;;;;17.50;69.90;;;;;;10170907;28;93590;-61
2023/01/02 11:56:14;;;;;;;;;;;17.40;69.50;;;;;;10169624;28;93436;-61
2023/01/02 12:01:17;;;;;;;;;;;17.30;69.40;;;;;;10169709;28;93022;-60
2023/01/02 12:06:20;;;;;;;;;;;17.20;69.20;;;;;;10169698;28;94620;-61
2023/01/02 12:11:31;;;;;;;;;;;17.10;68.90;;;;;;10170378;28;92284;-60
2023/01/02 12:16:36;;;;;;;;;;;17.10;68.80;;;;;;10169925;28;94247;-62
2023/01/02 12:21:44;;;;;;;;;;;17.00;68.80;;;;;;10169162;28;94564;-61
2023/01/02 12:26:50;;;;;;;;;;;17.00;68.70;;;;;;10167072;28;96898;-61
2023/01/02 12:32:06;;;;;;;;;;;17.10;68.60;;;;;;10166484;28;94289;-61
2023/01/02 12:37:26;;;;;;;;;;;17.10;68.20;;;;;;10167582;28;93000;-62
2023/01/02 12:42:28;;;;;;;;;;;17.20;67.70;;;;;;10168823;28;94216;-61
2023/01/02 12:47:36;;;;;;;;;;;17.30;67.60;;;;;;10168828;28;94006;-61
2023/01/02 12:52:54;;;;;;;;;;;17.30;67.20;;;;;;10166702;28;94201;-60
2023/01/02 12:57:57;;;;;;;;;;;17.30;66.90;;;;;;10167800;28;93694;-60
2023/01/02 13:03:17;;;;;;;;;;;17.30;66.70;;;;;;10167534;28;93317;-60
2023/01/02 13:08:40;;;;;;;;;;;17.30;66.50;;;;;;10166525;28;93488;-61
2023/01/02 13:13:42;;;;;;;;;;;17.30;66.40;;;;;;10167267;28;95377;-61
2023/01/02 13:18:46;;;;;;;;;;;17.20;66.40;;;;;;10164745;28;95925;-61
2023/01/02 13:24:01;;;;;;;;;;;17.20;66.60;;;;;;10166441;28;94799;-61
2023/01/02 13:29:05;;;;;;;;;;;17.10;66.60;;;;;;10167901;28;93458;-60
2023/01/02 13:34:24;;;;;;;;;;;17.10;66.50;;;;;;10165629;28;93474;-61
2023/01/02 13:39:28;;;;;;;;;;;17.00;66.70;;;;;;10165880;28;93687;-61
2023/01/02 13:44:31;;;;;;;;;;;17.00;66.60;;;;;;10165699;28;93350;-61
2023/01/02 13:49:33;;;;;;;;;;;17.10;66.60;;;;;;10165153;28;92880;-60
2023/01/02 13:54:35;;;;;;;;;;;17.00;66.60;;;;;;10166999;28;93204;-60
2023/01/02 13:59:48;;;;;;;;;;;17.00;66.60;;;;;;10166379;28;93861;-61
2023/01/02 14:04:50;;;;;;;;;;;17.00;66.70;;;;;;10165757;28;93242;-62
2023/01/02 14:10:11;;;;;;;;;;;17.00;66.60;;;;;;10162299;28;96035;-61
2023/01/02 14:15:17;;;;;;;;;;;17.00;66.50;;;;;;10166023;28;93076;-60
2023/01/02 14:20:19;;;;;;;;;;;17.00;66.50;;;;;;10172800;28;93605;-61
2023/01/02 14:25:21;;;;;;;;;;;17.00;66.60;;;;;;10172517;28;93645;-62
2023/01/02 14:30:28;;;;;;;;;;;17.00;66.50;;;;;;10173190;28;94281;-62
2023/01/02 14:35:32;;;;;;;;;;;17.00;66.60;;;;;;10171811;28;92493;-61
2023/01/02 14:40:36;;;;;;;;;;;17.20;66.80;;;;;;10171101;28;94355;-61
2023/01/02 14:45:46;;;;;;;;;;;17.40;66.90;;;;;;10173015;28;92692;-61
2023/01/02 14:50:48;;;;;;;;;;;17.50;66.60;;;;;;10171849;28;93495;-61
2023/01/02 14:55:52;;;;;;;;;;;17.70;66.40;;;;;;10172499;28;93204;-61
2023/01/02 15:00:55;;;;;;;;;;;17.70;66.30;;;;;;10170470;28;97429;-61
2023/01/02 15:06:25;;;;;;;;;;;17.80;66.20;;;;;;10171400;28;92776;-60
2023/01/02 15:16:58;;;;;;;;;;;17.70;66.50;;;;;;10170352;28;94487;-61
2023/01/02 15:22:33;;;;;;;;;;;17.70;66.60;;;;;;10169377;28;94323;-60
2023/01/02 15:27:39;;;;;;;;;;;17.50;66.40;;;;;;10162625;28;94364;-60
2023/01/02 15:32:45;;;;;;;;;;;17.40;66.20;;;;;;10170117;28;95157;-61
2023/01/02 15:37:48;;;;;;;;;;;17.30;66.10;;;;;;10170412;28;93415;-61
2023/01/02 15:48:12;;;;;;;;;;;17.10;65.90;;;;;;10169852;28;93435;-61
2023/01/02 15:53:19;;;;;;;;;;;17.10;65.80;;;;;;10166439;28;94965;-60
2023/01/02 15:58:23;;;;;;;;;;;17.00;65.90;;;;;;10169732;28;93469;-60
2023/01/02 16:03:35;;;;;;;;;;;17.00;65.60;;;;;;10168970;28;93992;-60
2023/01/02 16:08:58;;;;;;;;;;;17.00;65.60;;;;;;10168829;28;95633;-60
2023/01/02 16:14:20;;;;;;;;;;;17.00;62.90;;;;;;10168102;28;94198;-60
2023/01/02 16:19:25;;;;;;;;;;;16.80;62.50;;;;;;10167659;28;95151;-61
2023/01/02 16:24:27;;;;;;;;;;;16.70;62.50;;;;;;10167462;28;93504;-60
2023/01/02 16:29:29;;;;;;;;;;;16.60;62.20;;;;;;10168707;28;93743;-60
2023/01/02 16:34:34;;;;;;;;;;;16.80;62.40;;;;;;10167078;28;93543;-61
2023/01/02 16:39:46;;;;;;;;;;;17.00;62.30;;;;;;10167670;28;93511;-60
2023/01/02 16:44:52;;;;;;;;;;;17.10;62.20;;;;;;10164462;28;96279;-61
2023/01/02 16:49:54;;;;;;;;;;;17.20;61.90;;;;;;10167109;28;93897;-61
2023/01/02 16:54:56;;;;;;;;;;;17.20;61.90;;;;;;10164809;28;94332;-60
2023/01/02 16:59:57;;;;;;;;;;;17.20;61.80;;;;;;10165073;28;93001;-61
2023/01/02 17:05:00;;;;;;;;;;;17.20;61.70;;;;;;10165896;28;94501;-61
2023/01/02 17:10:02;;;;;;;;;;;17.20;61.80;;;;;;10166603;28;94453;-60
2023/01/02 17:15:04;;;;;;;;;;;17.10;61.80;;;;;;10165575;28;94438;-61
2023/01/02 17:20:08;;;;;;;;;;;17.10;61.80;;;;;;10165225;28;92650;-60
2023/01/02 17:25:11;;;;;;;;;;;17.10;61.80;;;;;;10165418;28;93723;-60
2023/01/02 17:30:14;;;;;;;;;;;17.10;61.60;;;;;;10164246;28;94488;-60
2023/01/02 17:35:16;;;;;;;;;;;17.20;61.40;;;;;;10162750;28;96513;-60
2023/01/02 17:40:18;;;;;;;;;;;17.30;61.60;;;;;;10165159;28;93494;-61
2023/01/02 17:45:20;;;;;;;;;;;17.30;61.70;;;;;;10165390;28;94027;-61
2023/01/02 17:50:22;;;;;;;;;;;17.40;61.90;;;;;;10165254;28;92986;-60
2023/01/02 17:55:23;;;;;;;;;;;17.40;62.10;;;;;;10177178;28;94491;-60
2023/01/02 18:00:25;;;;;;;;;;;17.30;63.00;;;;;;10177994;28;94397;-60
2023/01/02 18:05:27;;;;;;;;;;;17.40;63.20;;;;;;10177266;28;94391;-60
2023/01/02 18:10:29;;;;;;;;;;;17.40;63.20;;;;;;10179431;28;92502;-60
2023/01/02 18:15:34;;;;;;;;;;;17.40;63.10;;;;;;10177490;28;93514;-60
2023/01/02 18:20:43;;;;;;;;;;;17.30;63.20;;;;;;10177974;28;93504;-60
2023/01/02 18:25:45;;;;;;;;;;;17.30;63.40;;;;;;10175482;28;96450;-60
2023/01/02 18:30:50;;;;;;;;;;;17.20;63.50;;;;;;10176108;28;94532;-60
2023/01/02 18:35:56;;;;;;;;;;;17.20;63.70;;;;;;10176700;28;94296;-60
2023/01/02 18:41:08;;;;;;;;;;;17.10;63.80;;;;;;10174798;28;93703;-60
2023/01/02 18:46:15;;;;;;;;;;;17.10;63.90;;;;;;10175563;28;94430;-60
2023/01/02 18:51:19;;;;;;;;;;;17.00;64.10;;;;;;10175817;28;93600;-60
2023/01/02 18:56:23;;;;;;;;;;;17.00;64.30;;;;;;10175943;28;93421;-61
2023/01/02 19:01:34;;;;;;;;;;;17.00;64.30;;;;;;10177392;28;93615;-61
2023/01/02 19:06:46;;;;;;;;;;;16.90;64.30;;;;;;10170370;28;94830;-61
2023/01/02 19:17:18;;;;;;;;;;;16.90;65.40;;;;;;10166861;28;96032;-60
2023/01/02 19:22:21;;;;;;;;;;;16.90;65.90;;;;;;10169182;28;94536;-61
2023/01/02 19:27:24;;;;;;;;;;;16.90;66.00;;;;;;10168959;28;93803;-61
2023/01/02 19:32:30;;;;;;;;;;;16.90;65.80;;;;;;10167091;28;93842;-60
2023/01/02 19:37:32;;;;;;;;;;;16.90;66.10;;;;;;10168797;28;94490;-61
2023/01/02 19:42:34;;;;;;;;;;;16.90;66.20;;;;;;10168293;28;93253;-61
2023/01/02 19:47:36;;;;;;;;;;;16.90;66.20;;;;;;10168373;28;94831;-60
2023/01/02 19:52:38;;;;;;;;;;;16.90;66.30;;;;;;10170122;28;92585;-60
2023/01/02 19:57:40;;;;;;;;;;;16.90;66.30;;;;;;10168655;28;94557;-61
2023/01/02 20:02:44;;;;;;;;;;;16.80;66.20;;;;;;10181659;28;93774;-61
2023/01/02 20:07:46;;;;;;;;;;;16.80;66.20;;;;;;10165480;28;97024;-61
2023/01/02 20:12:48;;;;;;;;;;;16.80;66.30;;;;;;10168760;28;95008;-61
2023/01/02 20:17:51;;;;;;;;;;;16.80;66.20;;;;;;10167100;28;93924;-61
2023/01/02 20:22:53;;;;;;;;;;;16.70;66.40;;;;;;10168038;28;94897;-61
2023/01/02 20:27:55;;;;;;;;;;;16.80;66.30;;;;;;10168020;28;93525;-61
2023/01/02 20:32:57;;;;;;;;;;;16.80;66.20;;;;;;10166847;28;93410;-62
2023/01/02 20:37:59;;;;;;;;;;;16.90;66.20;;;;;;10167574;28;94475;-62
2023/01/02 20:43:00;;;;;;;;;;;17.00;66.10;;;;;;10168426;28;93438;-60
2023/01/02 20:48:02;;;;;;;;;;;17.00;65.90;;;;;;10166511;28;93352;-61
2023/01/02 20:53:05;;;;;;;;;;;17.00;65.80;;;;;;10167788;28;93151;-61
2023/01/02 20:58:07;;;;;;;;;;;17.00;65.80;;;;;;10164261;28;96027;-61
2023/01/02 21:03:09;;;;;;;;;;;17.00;65.80;;;;;;10165238;28;94930;-61
2023/01/02 21:08:11;;;;;;;;;;;17.00;65.80;;;;;;10166445;28;93723;-61
2023/01/02 21:13:13;;;;;;;;;;;17.00;65.80;;;;;;10164693;28;93232;-61
2023/01/02 21:18:17;;;;;;;;;;;17.00;65.80;;;;;;10181143;28;93554;-61
2023/01/02 21:23:19;;;;;;;;;;;17.00;65.80;;;;;;10165531;28;94299;-61
2023/01/02 21:28:21;;;;;;;;;;;17.00;65.90;;;;;;10164639;28;93410;-60
2023/01/02 21:33:24;;;;;;;;;;;16.90;65.80;;;;;;10164565;28;93645;-60
2023/01/02 21:38:26;;;;;;;;;;;16.90;65.90;;;;;;10165550;28;93359;-60
2023/01/02 21:43:28;;;;;;;;;;;16.90;66.00;;;;;;10165444;28;93076;-61
2023/01/02 21:48:30;;;;;;;;;;;16.80;65.90;;;;;;10162872;28;98016;-60
2023/01/02 21:53:32;;;;;;;;;;;16.90;65.80;;;;;;10164675;28;93558;-60
2023/01/02 21:58:33;;;;;;;;;;;16.80;65.70;;;;;;10165083;28;94366;-60
2023/01/02 22:03:35;;;;;;;;;;;16.80;65.70;;;;;;10164586;28;93959;-61
2023/01/02 22:08:37;;;;;;;;;;;16.80;65.70;;;;;;10163426;28;94495;-61
2023/01/02 22:13:39;;;;;;;;;;;16.70;65.60;;;;;;10164897;28;93204;-60
2023/01/02 22:18:40;;;;;;;;;;;16.70;65.60;;;;;;10164995;28;93354;-60
2023/01/02 22:23:42;;;;;;;;;;;16.70;65.60;;;;;;10165664;28;93758;-60
2023/01/02 22:28:44;;;;;;;;;;;16.70;65.50;;;;;;10164759;28;94488;-60
2023/01/02 22:33:46;;;;;;;;;;;16.70;65.50;;;;;;10165097;28;94480;-61
2023/01/02 22:38:47;;;;;;;;;;;16.60;65.40;;;;;;10164166;28;95825;-60
2023/01/02 22:44:13;;;;;;;;;;;16.60;65.50;;;;;;10170947;28;96126;-60
2023/01/02 22:49:16;;;;;;;;;;;16.60;65.50;;;;;;10170321;28;93542;-61
2023/01/02 22:54:19;;;;;;;;;;;16.60;65.50;;;;;;10169801;28;94282;-60
2023/01/02 22:59:20;;;;;;;;;;;16.60;65.40;;;;;;10170828;28;93697;-61
2023/01/02 23:04:23;;;;;;;;;;;16.60;65.40;;;;;;10169004;28;93499;-61
2023/01/02 23:09:25;;;;;;;;;;;16.60;65.40;;;;;;10170373;28;93498;-60
2023/01/02 23:14:27;;;;;;;;;;;16.60;65.10;;;;;;10168538;28;92158;-61
2023/01/02 23:19:28;;;;;;;;;;;16.60;65.30;;;;;;10169302;28;93499;-61
2023/01/02 23:24:32;;;;;;;;;;;16.50;65.50;;;;;;10170242;28;93430;-61
2023/01/02 23:29:34;;;;;;;;;;;16.50;65.50;;;;;;10182489;28;96702;-61
2023/01/02 23:34:36;;;;;;;;;;;16.50;65.30;;;;;;10168868;28;93530;-61
2023/01/02 23:39:38;;;;;;;;;;;16.50;65.40;;;;;;10168706;28;93215;-61
2023/01/02 23:44:40;;;;;;;;;;;16.50;65.30;;;;;;10169479;28;94122;-61
2023/01/02 23:49:42;;;;;;;;;;;16.40;65.20;;;;;;10168017;28;93707;-61
2023/01/02 23:54:44;;;;;;;;;;;16.40;65.20;;;;;;10168993;28;93559;-61
2023/01/02 23:59:45;;;;;;;;;;;16.40;65.20;;;;;;10183986;28;94448;-61
